Time;durP1;ratioP1;P1;durP2;ratioP2;P2;SDS_P1;SDS_P2;PMS_P1;PMS_P2;Temp;Humidity;BMP_temperature;BMP_pressure;BME280_temperature;BME280_humidity;BME280_pressure;Samples;Min_cycle;Max_cycle;Signal;HPM_P1;HPM_P2
2021/08/26 00:06:51;;;;;;;11.95;4.88;;;;;;;13.98;100.00;100769.09;5060418;28;20039;-85
2021/08/26 00:09:17;;;;;;;10.70;5.20;;;;;;;13.94;100.00;100760.75;5065933;28;20107;-85
2021/08/26 00:11:44;;;;;;;8.80;4.68;;;;;;;14.03;100.00;100764.53;5066793;28;20021;-85
2021/08/26 00:14:10;;;;;;;12.02;5.20;;;;;;;13.99;100.00;100760.72;5059839;28;20029;-85
2021/08/26 00:16:40;;;;;;;11.30;5.47;;;;;;;14.09;100.00;100755.34;5063754;28;20020;-85
2021/08/26 00:19:06;;;;;;;10.45;4.90;;;;;;;14.09;100.00;100757.25;5060897;28;20090;-84
2021/08/26 00:21:31;;;;;;;11.13;5.07;;;;;;;14.13;100.00;100752.91;5062382;28;20540;-85
2021/08/26 00:23:57;;;;;;;6.80;4.35;;;;;;;14.14;100.00;100758.03;5056918;28;20031;-85
2021/08/26 00:26:22;;;;;;;9.52;5.60;;;;;;;14.23;100.00;100746.72;5060384;28;20020;-86
2021/08/26 00:28:48;;;;;;;10.30;5.03;;;;;;;14.19;99.91;100749.16;5063586;28;20510;-86
2021/08/26 00:31:13;;;;;;;9.73;4.93;;;;;;;14.26;99.49;100752.38;5062091;28;20107;-85
2021/08/26 00:33:39;;;;;;;13.05;4.65;;;;;;;14.24;99.36;100748.34;5065169;28;20024;-84
2021/08/26 00:36:04;;;;;;;10.35;4.80;;;;;;;14.16;99.04;100747.78;5064686;28;20525;-85
2021/08/26 00:38:30;;;;;;;17.80;5.68;;;;;;;14.20;99.64;100740.00;5068066;28;20036;-86
2021/08/26 00:40:59;;;;;;;12.05;4.88;;;;;;;14.17;99.55;100741.31;5069280;28;20620;-85
2021/08/26 00:43:29;;;;;;;14.55;5.93;;;;;;;14.30;99.91;100739.16;5061709;28;20021;-85
2021/08/26 00:45:56;;;;;;;11.20;4.95;;;;;;;14.29;99.30;100734.84;5077470;28;20028;-85
2021/08/26 00:48:25;;;;;;;11.32;4.45;;;;;;;14.29;99.55;100737.53;5068867;28;20029;-84
2021/08/26 00:50:52;;;;;;;10.98;5.32;;;;;;;14.31;99.11;100729.97;5067317;28;20146;-86
2021/08/26 00:53:18;;;;;;;13.73;5.20;;;;;;;14.21;98.58;100734.31;5063054;28;20025;-85
2021/08/26 00:55:44;;;;;;;15.43;5.70;;;;;;;14.25;98.38;100728.38;5064409;28;20043;-85
2021/08/26 00:58:10;;;;;;;11.98;5.18;;;;;;;14.34;98.61;100724.84;5064728;28;20478;-85
2021/08/26 01:00:39;;;;;;;10.85;5.30;;;;;;;14.35;98.65;100722.97;5067123;28;20033;-86
2021/08/26 01:03:12;;;;;;;11.55;5.50;;;;;;;14.26;98.39;100721.91;5067853;28;20032;-86
2021/08/26 01:05:55;;;;;;;11.10;5.22;;;;;;;14.32;98.18;100724.31;5054570;28;20043;-84
2021/08/26 01:08:31;;;;;;;18.83;5.32;;;;;;;14.31;97.71;100729.97;5062014;28;20064;-85
2021/08/26 01:10:59;;;;;;;13.65;5.10;;;;;;;14.31;97.95;100730.78;5058757;28;20077;-85
2021/08/26 01:13:32;;;;;;;10.55;5.05;;;;;;;14.32;97.45;100734.28;5062218;28;20021;-85
2021/08/26 01:16:05;;;;;;;12.85;4.60;;;;;;;14.39;97.44;100734.84;5057641;28;20387;-85
2021/08/26 01:18:38;;;;;;;12.13;5.55;;;;;;;14.32;97.00;100726.19;5066163;28;20097;-85
2021/08/26 01:21:06;;;;;;;15.73;5.40;;;;;;;14.37;97.27;100724.31;5059550;28;20958;-85
2021/08/26 01:23:36;;;;;;;12.90;4.93;;;;;;;14.38;97.62;100715.16;5066226;28;20173;-85
2021/08/26 01:26:13;;;;;;;10.57;4.47;;;;;;;14.45;96.88;100721.09;5078498;28;20029;-85
2021/08/26 01:28:41;;;;;;;14.73;5.70;;;;;;;14.34;97.27;100716.75;5063288;28;20621;-85
2021/08/26 01:31:06;;;;;;;13.68;5.13;;;;;;;14.42;96.65;100723.50;5062522;28;20025;-85
2021/08/26 01:33:33;;;;;;;16.23;5.68;;;;;;;14.30;96.79;100712.19;5059908;28;20021;-86
2021/08/26 01:36:02;;;;;;;21.35;5.45;;;;;;;14.35;96.46;100712.97;5063165;28;20020;-85
2021/08/26 01:38:27;;;;;;;18.77;5.05;;;;;;;14.31;96.83;100711.91;5062221;28;20431;-86
2021/08/26 01:40:53;;;;;;;13.93;4.68;;;;;;;14.21;97.49;100704.69;5064531;28;20048;-85
2021/08/26 01:43:19;;;;;;;18.98;5.75;;;;;;;14.18;97.70;100707.94;5061310;28;20056;-86
2021/08/26 01:45:48;;;;;;;12.18;5.20;;;;;;;14.11;97.86;100707.38;5068577;28;20593;-85
2021/08/26 01:48:18;;;;;;;13.93;5.47;;;;;;;14.19;97.93;100709.53;5060698;28;20033;-85
2021/08/26 01:50:44;;;;;;;15.52;5.32;;;;;;;14.31;97.20;100708.41;5078246;28;20035;-86
2021/08/26 01:53:10;;;;;;;15.38;5.75;;;;;;;14.31;97.11;100706.53;5077888;28;20409;-85
2021/08/26 01:55:37;;;;;;;16.63;5.53;;;;;;;14.27;96.95;100705.47;5066331;28;20021;-85
2021/08/26 01:58:02;;;;;;;18.33;5.70;;;;;;;14.36;96.73;100711.94;5066222;28;20094;-85
2021/08/26 02:00:28;;;;;;;17.77;4.93;;;;;;;14.34;96.70;100705.16;5063414;28;20507;-85
2021/08/26 02:02:53;;;;;;;18.70;5.68;;;;;;;14.33;96.68;100711.66;5065043;28;20039;-85
2021/08/26 02:05:19;;;;;;;13.68;5.32;;;;;;;14.30;96.53;100714.91;5060275;28;20082;-86
2021/08/26 02:07:49;;;;;;;14.35;4.72;;;;;;;14.29;96.62;100713.28;5063623;28;20028;-85
2021/08/26 02:10:15;;;;;;;13.98;5.40;;;;;;;14.30;96.86;100713.00;5068503;28;20095;-85
2021/08/26 02:12:41;;;;;;;9.52;5.32;;;;;;;14.33;96.92;100714.34;5063799;28;20152;-85
2021/08/26 02:15:07;;;;;;;13.35;5.28;;;;;;;14.39;96.77;100726.75;5065396;28;20032;-85
2021/08/26 02:17:33;;;;;;;18.48;5.63;;;;;;;14.39;96.79;100726.75;5065374;28;20035;-85
2021/08/26 02:19:58;;;;;;;13.32;5.15;;;;;;;14.39;96.38;100721.34;5064657;28;20025;-86
2021/08/26 02:22:24;;;;;;;13.05;5.53;;;;;;;14.43;96.40;100725.09;5065193;28;20028;-85
2021/08/26 02:24:49;;;;;;;16.65;5.68;;;;;;;14.36;96.27;100719.19;5062684;28;20036;-85
2021/08/26 02:27:15;;;;;;;22.60;6.32;;;;;;;14.40;96.51;100725.66;5065441;28;20024;-86
2021/08/26 02:29:40;;;;;;;17.67;5.63;;;;;;;14.48;95.73;100719.72;5065596;28;20566;-85
2021/08/26 02:32:06;;;;;;;22.75;6.13;;;;;;;14.54;95.82;100720.50;5063444;28;20131;-85
2021/08/26 02:34:31;;;;;;;16.88;5.50;;;;;;;14.56;95.35;100718.38;5062140;28;20031;-85
2021/08/26 02:36:57;;;;;;;16.90;5.30;;;;;;;14.58;95.29;100719.72;5065235;28;20036;-85
2021/08/26 02:39:23;;;;;;;22.70;5.70;;;;;;;14.54;95.56;100725.91;5065566;28;20054;-86
2021/08/26 02:41:49;;;;;;;22.15;6.82;;;;;;;14.49;94.57;100714.06;5059446;28;20491;-86
2021/08/26 02:44:14;;;;;;;17.60;6.20;;;;;;;14.50;95.24;100714.88;5064597;28;20039;-85
2021/08/26 02:46:40;;;;;;;17.80;5.72;;;;;;;14.49;95.20;100719.44;5062820;28;20090;-84
2021/08/26 02:49:05;;;;;;;22.20;6.78;;;;;;;14.47;95.49;100715.41;5060792;28;20024;-85
2021/08/26 02:51:31;;;;;;;18.42;6.40;;;;;;;14.51;95.27;100719.16;5057075;28;20437;-86
2021/08/26 02:53:56;;;;;;;18.88;6.07;;;;;;;14.54;95.10;100717.81;5062057;28;20032;-85
2021/08/26 02:56:22;;;;;;;19.38;6.45;;;;;;;14.57;95.00;100717.28;5064444;28;20486;-85
2021/08/26 02:58:47;;;;;;;17.77;6.45;;;;;;;14.56;95.42;100713.78;5060106;28;20083;-85
2021/08/26 03:01:13;;;;;;;26.13;7.30;;;;;;;14.63;94.63;100719.69;5063154;28;20123;-85
2021/08/26 03:03:38;;;;;;;19.60;7.68;;;;;;;14.55;94.73;100714.06;5058938;28;20437;-85
2021/08/26 03:06:05;;;;;;;16.45;5.93;;;;;;;14.72;94.43;100718.03;5063742;28;20123;-86
2021/08/26 03:08:32;;;;;;;22.10;7.22;;;;;;;14.73;94.07;100714.25;5064407;28;20024;-86
2021/08/26 03:10:58;;;;;;;17.85;7.03;;;;;;;14.61;94.39;100719.16;5063201;28;20024;-84
2021/08/26 03:13:24;;;;;;;24.13;6.82;;;;;;;14.63;94.62;100714.28;5060920;28;20145;-85
2021/08/26 03:15:49;;;;;;;19.52;6.20;;;;;;;14.69;93.89;100712.38;5057990;28;20024;-85
2021/08/26 03:18:15;;;;;;;20.88;6.88;;;;;;;14.74;94.01;100717.75;5062216;28;20087;-85
2021/08/26 03:20:42;;;;;;;22.80;6.85;;;;;;;14.70;94.19;100712.09;5057828;28;20053;-84
2021/08/26 03:23:08;;;;;;;18.80;6.88;;;;;;;14.61;94.58;100711.06;5064544;28;20116;-85
2021/08/26 03:25:34;;;;;;;25.95;8.10;;;;;;;14.67;94.58;100709.16;5059888;28;20108;-85
2021/08/26 03:28:00;;;;;;;29.85;7.22;;;;;;;14.64;94.00;100715.91;5057050;28;20108;-85
2021/08/26 03:30:25;;;;;;;20.38;6.68;;;;;;;14.76;93.74;100707.50;5065224;28;20095;-86
2021/08/26 03:32:51;;;;;;;17.13;6.32;;;;;;;14.76;93.53;100711.00;5062068;28;20031;-85
2021/08/26 03:35:16;;;;;;;20.38;6.20;;;;;;;14.68;94.02;100727.75;5062718;28;20025;-86
2021/08/26 03:37:42;;;;;;;27.75;7.57;;;;;;;14.73;93.88;100714.25;5065389;28;20106;-85
2021/08/26 03:40:08;;;;;;;21.65;6.25;;;;;;;14.71;93.45;100713.69;5064753;28;20020;-85
2021/08/26 03:42:34;;;;;;;19.90;6.63;;;;;;;14.55;93.88;100711.38;5058652;28;20524;-85
2021/08/26 03:45:00;;;;;;;25.13;7.05;;;;;;;14.49;94.58;100710.56;5062746;28;20033;-86
2021/08/26 03:47:26;;;;;;;21.10;7.63;;;;;;;14.48;94.50;100711.63;5063368;28;20115;-86
2021/08/26 03:49:51;;;;;;;24.17;8.10;;;;;;;14.37;95.00;100707.34;5063320;28;20032;-85
2021/08/26 03:52:17;;;;;;;25.77;7.20;;;;;;;14.35;95.41;100704.09;5057723;28;20051;-85
2021/08/26 03:54:43;;;;;;;25.17;6.95;;;;;;;14.33;95.51;100703.56;5070511;28;20506;-84
2021/08/26 03:57:08;;;;;;;20.15;7.38;;;;;;;14.37;95.35;100705.47;5062094;28;20024;-85
2021/08/26 03:59:34;;;;;;;15.02;6.63;;;;;;;14.47;94.82;100689.25;5060984;28;20029;-85
2021/08/26 04:01:59;;;;;;;20.80;7.53;;;;;;;14.49;94.95;100686.28;5058878;28;20075;-85
2021/08/26 04:04:25;;;;;;;17.38;7.15;;;;;;;14.47;95.03;100683.06;5064968;28;20074;-86
2021/08/26 04:06:51;;;;;;;23.33;7.85;;;;;;;14.20;96.54;100683.41;5053295;28;20052;-85
2021/08/26 04:09:16;;;;;;;17.52;7.70;;;;;;;14.09;97.32;100693.38;5066334;28;20024;-85
2021/08/26 04:11:41;;;;;;;27.05;7.97;;;;;;;13.96;99.59;100711.97;5064814;28;20516;-86
2021/08/26 04:14:07;;;;;;;22.70;7.38;;;;;;;13.98;98.83;100724.09;5063882;28;20064;-86
2021/08/26 04:16:33;;;;;;;20.55;6.45;;;;;;;14.04;97.95;100716.84;5066543;28;20092;-85
2021/08/26 04:18:58;;;;;;;26.10;7.70;;;;;;;13.95;98.34;100713.88;5067128;28;20029;-85
2021/08/26 04:21:24;;;;;;;15.27;6.90;;;;;;;13.86;98.71;100704.75;5067779;28;20025;-85
2021/08/26 04:23:49;;;;;;;21.75;6.72;;;;;;;13.86;98.69;100704.75;5060582;28;20066;-86
2021/08/26 04:26:15;;;;;;;32.00;8.48;;;;;;;13.71;100.00;100704.75;5068159;28;20235;-86
2021/08/26 04:28:40;;;;;;;21.73;7.95;;;;;;;13.68;100.00;100705.28;5069601;28;20031;-88
2021/08/26 04:31:06;;;;;;;23.55;8.52;;;;;;;13.58;100.00;100708.78;5079453;28;20025;-85
2021/08/26 04:33:31;;;;;;;21.77;7.82;;;;;;;13.59;100.00;100705.81;5057626;28;20112;-85
2021/08/26 04:35:58;;;;;;;17.95;7.28;;;;;;;13.67;100.00;100714.44;5064780;28;20104;-86
2021/08/26 04:38:23;;;;;;;22.85;8.00;;;;;;;13.75;99.71;100711.19;5066978;28;20051;-86
2021/08/26 04:40:49;;;;;;;21.95;7.78;;;;;;;13.81;99.71;100720.88;5065120;28;20067;-87
2021/08/26 04:43:14;;;;;;;25.40;7.78;;;;;;;13.90;99.81;100722.78;5066982;28;20024;-85
2021/08/26 04:45:40;;;;;;;24.45;7.88;;;;;;;14.09;98.89;100714.13;5063181;28;20024;-86
2021/08/26 04:48:06;;;;;;;20.67;7.47;;;;;;;14.22;98.04;100718.97;5066328;28;20370;-81
2021/08/26 04:50:31;;;;;;;20.52;7.00;;;;;;;14.34;97.29;100715.94;5061779;28;20021;-81
2021/08/26 04:52:57;;;;;;;17.38;7.45;;;;;;;14.34;96.99;100727.53;5066225;28;20032;-83
2021/08/26 04:55:22;;;;;;;24.73;7.00;;;;;;;14.17;98.13;100730.53;5060373;28;20394;-81
2021/08/26 04:57:48;;;;;;;21.10;7.95;;;;;;;14.14;98.78;100732.97;5067080;28;20074;-82
2021/08/26 05:00:14;;;;;;;21.25;7.50;;;;;;;14.29;97.61;100729.44;5060370;28;20027;-81
2021/08/26 05:02:39;;;;;;;15.05;5.47;;;;;;;14.32;97.10;100732.41;5055750;28;20028;-83
2021/08/26 05:05:05;;;;;;;15.80;6.05;;;;;;;14.45;96.73;100728.38;5060297;28;20248;-82
2021/08/26 05:07:30;;;;;;;14.00;5.82;;;;;;;14.50;95.65;100728.34;5065845;28;20525;-82
2021/08/26 05:09:56;;;;;;;17.23;6.47;;;;;;;14.56;95.34;100724.56;5063507;28;20028;-86
2021/08/26 05:12:22;;;;;;;19.77;6.32;;;;;;;14.51;94.96;100729.94;5072039;28;20024;-86
2021/08/26 05:14:49;;;;;;;16.58;6.45;;;;;;;14.44;94.90;100741.03;5070113;28;20584;-86
2021/08/26 05:17:15;;;;;;;23.23;5.82;;;;;;;14.53;94.59;100725.09;5061930;28;20025;-85
2021/08/26 05:19:43;;;;;;;14.35;5.53;;;;;;;14.54;93.93;100734.78;5067828;28;20115;-86
2021/08/26 05:22:09;;;;;;;16.35;5.57;;;;;;;14.56;93.41;100729.97;5064750;28;20024;-86
2021/08/26 05:24:35;;;;;;;16.75;5.07;;;;;;;14.57;93.19;100731.56;5067705;28;20036;-86
2021/08/26 05:27:00;;;;;;;12.23;4.72;;;;;;;14.63;92.77;100738.56;5065594;28;20036;-86
2021/08/26 05:29:26;;;;;;;10.90;4.55;;;;;;;14.69;92.36;100739.34;5065986;28;20032;-86
2021/08/26 05:31:55;;;;;;;11.95;5.13;;;;;;;14.76;92.16;100740.66;5066844;28;20021;-86
2021/08/26 05:34:20;;;;;;;12.65;4.25;;;;;;;14.75;91.82;100739.06;5061799;28;20033;-86
2021/08/26 05:36:46;;;;;;;12.90;4.20;;;;;;;14.73;91.66;100741.22;5064125;28;20028;-86
2021/08/26 05:39:12;;;;;;;13.95;3.75;;;;;;;14.70;91.27;100739.06;5063221;28;20025;-86
2021/08/26 05:41:37;;;;;;;8.07;3.50;;;;;;;14.83;90.63;100748.47;5064503;28;20037;-86
2021/08/26 05:44:03;;;;;;;10.75;3.28;;;;;;;14.78;90.04;100745.78;5065805;28;20020;-86
2021/08/26 05:46:33;;;;;;;8.40;2.75;;;;;;;14.69;89.48;100750.13;5070787;28;20036;-86
2021/08/26 05:48:58;;;;;;;13.10;2.60;;;;;;;14.55;89.50;100749.91;5072765;28;20040;-86
2021/08/26 05:51:24;;;;;;;6.95;2.45;;;;;;;14.66;88.62;100756.88;5063273;28;20090;-86
2021/08/26 05:53:49;;;;;;;8.40;2.25;;;;;;;14.89;88.10;100760.03;5057360;28;20029;-88
2021/08/26 05:56:15;;;;;;;3.28;2.28;;;;;;;14.93;86.35;100759.22;5070891;28;20028;-86
2021/08/26 05:58:43;;;;;;;7.90;2.00;;;;;;;15.11;86.05;100758.59;5070655;28;20028;-86
2021/08/26 06:01:08;;;;;;;4.72;1.75;;;;;;;15.10;83.14;100756.16;5070750;28;20035;-86
2021/08/26 06:03:34;;;;;;;4.63;1.60;;;;;;;15.36;83.74;100754.94;5071404;28;20124;-88
2021/08/26 06:06:04;;;;;;;12.95;1.63;;;;;;;15.56;83.07;100763.97;5069263;28;20035;-86
2021/08/26 06:08:37;;;;;;;6.28;1.50;;;;;;;15.72;81.78;100762.81;5070825;28;20044;-86
2021/08/26 06:11:05;;;;;;;4.43;1.40;;;;;;;15.87;80.82;100761.91;5066509;28;20471;-88
2021/08/26 06:13:31;;;;;;;4.35;1.60;;;;;;;16.00;79.48;100762.06;5068514;28;20025;-86
2021/08/26 06:15:56;;;;;;;2.97;1.15;;;;;;;16.15;78.32;100768.41;5060216;28;20025;-85
2021/08/26 06:18:26;;;;;;;2.30;1.27;;;;;;;16.15;77.13;100771.09;5068632;28;20028;-86
2021/08/26 06:20:59;;;;;;;1.27;0.70;;;;;;;16.11;73.93;100773.56;5070725;28;20437;-86
2021/08/26 06:23:25;;;;;;;1.45;1.05;;;;;;;16.37;75.06;100768.75;5062598;28;20147;-86
2021/08/26 06:25:51;;;;;;;2.80;0.90;;;;;;;16.56;74.20;100766.13;5063503;28;20020;-87
2021/08/26 06:28:16;;;;;;;1.20;0.70;;;;;;;16.69;72.75;100773.53;5065425;28;20689;-86
2021/08/26 06:30:42;;;;;;;3.78;0.68;;;;;;;16.91;71.80;100770.34;5067429;28;20020;-85
2021/08/26 06:33:07;;;;;;;1.38;0.70;;;;;;;16.94;70.92;100769.75;5068639;28;20504;-85
2021/08/26 06:35:37;;;;;;;3.85;0.93;;;;;;;17.26;69.88;100768.25;5069261;28;20107;-86
2021/08/26 06:38:03;;;;;;;3.63;0.68;;;;;;;17.37;68.92;100769.72;5064671;28;20031;-86
2021/08/26 06:40:29;;;;;;;1.92;0.43;;;;;;;17.47;68.58;100785.84;5065273;28;20085;-87
2021/08/26 06:42:57;;;;;;;1.80;0.50;;;;;;;17.26;67.50;100784.50;5067792;28;20036;-86
2021/08/26 06:45:23;;;;;;;4.10;0.80;;;;;;;17.57;68.09;100782.16;5066309;28;20024;-87
2021/08/26 06:47:48;;;;;;;2.47;0.65;;;;;;;17.61;66.73;100773.16;5064906;28;20410;-86
2021/08/26 06:50:14;;;;;;;2.83;0.60;;;;;;;17.74;64.92;100769.72;5060142;28;20115;-85
2021/08/26 06:52:39;;;;;;;0.60;0.43;;;;;;;17.46;64.71;100773.38;5063157;28;20021;-86
2021/08/26 06:55:06;;;;;;;3.55;0.60;;;;;;;17.76;65.48;100769.41;5061632;28;20041;-85
2021/08/26 06:57:32;;;;;;;4.60;0.80;;;;;;;18.03;63.62;100768.72;5069470;28;20060;-85
2021/08/26 06:59:58;;;;;;;2.47;0.60;;;;;;;17.59;62.94;100778.03;5068815;28;20028;-84
2021/08/26 07:02:23;;;;;;;1.75;0.50;;;;;;;17.99;64.13;100765.81;5062547;28;20047;-85
2021/08/26 07:04:49;;;;;;;1.45;0.55;;;;;;;17.56;63.69;100767.81;5064258;28;20613;-86
2021/08/26 07:07:15;;;;;;;1.67;0.50;;;;;;;17.80;63.79;100767.75;5060272;28;20025;-87
2021/08/26 07:09:40;;;;;;;0.30;0.28;;;;;;;17.79;62.96;100766.94;5056924;28;20106;-86
2021/08/26 07:12:09;;;;;;;2.55;0.73;;;;;;;17.99;63.28;100770.44;5070544;28;20052;-86
2021/08/26 07:14:35;;;;;;;1.05;0.60;;;;;;;18.23;62.95;100764.84;5062353;28;20040;-86
2021/08/26 07:17:00;;;;;;;1.05;0.52;;;;;;;17.86;61.96;100773.88;5062356;28;20025;-87
2021/08/26 07:19:26;;;;;;;1.50;0.60;;;;;;;17.52;62.06;100777.63;5079122;28;20020;-90
2021/08/26 07:21:51;;;;;;;2.17;0.55;;;;;;;17.56;62.29;100778.63;5078110;28;20060;-86
2021/08/26 07:24:24;;;;;;;0.77;0.45;;;;;;;17.22;62.34;100778.84;5066081;28;20024;-86
2021/08/26 07:26:50;;;;;;;0.40;0.40;;;;;;;17.37;62.85;100775.13;5066047;28;20022;-87
2021/08/26 07:29:16;;;;;;;1.08;0.35;;;;;;;17.24;62.29;100781.28;5067469;28;20075;-86
2021/08/26 07:31:43;;;;;;;1.08;0.40;;;;;;;17.31;62.92;100781.72;5062281;28;20056;-86
2021/08/26 07:34:08;;;;;;;2.75;0.50;;;;;;;17.18;62.71;100781.34;5064437;28;20025;-86
2021/08/26 07:36:37;;;;;;;1.42;0.45;;;;;;;17.29;62.36;100781.22;5059317;28;20074;-85
2021/08/26 07:39:03;;;;;;;0.98;0.30;;;;;;;17.49;61.91;100780.94;5068298;28;20031;-84
2021/08/26 07:41:30;;;;;;;1.23;0.30;;;;;;;17.71;62.44;100774.94;5066857;28;20028;-85
2021/08/26 07:43:57;;;;;;;1.17;0.38;;;;;;;17.44;60.46;100787.22;5064540;28;20391;-85
2021/08/26 07:46:25;;;;;;;2.42;0.40;;;;;;;17.34;60.70;100787.34;5066054;28;20035;-85
2021/08/26 07:48:50;;;;;;;1.08;0.30;;;;;;;17.81;60.87;100785.63;5061846;28;20021;-86
2021/08/26 07:51:16;;;;;;;1.63;0.40;;;;;;;18.24;60.21;100775.41;5066665;28;20028;-86
2021/08/26 07:53:46;;;;;;;0.90;0.60;;;;;;;17.97;60.39;100778.84;5069652;28;20047;-86
2021/08/26 07:56:14;;;;;;;4.10;0.60;;;;;;;17.68;61.17;100784.47;5069227;28;20628;-86
2021/08/26 07:58:42;;;;;;;1.83;0.50;;;;;;;18.08;61.44;100776.75;5063661;28;20400;-86
2021/08/26 08:01:11;;;;;;;0.35;0.35;;;;;;;18.41;60.22;100777.53;5066683;28;20027;-87
2021/08/26 08:03:36;;;;;;;0.77;0.40;;;;;;;18.35;59.10;100773.31;5056858;28;20037;-87
2021/08/26 08:06:05;;;;;;;1.65;0.40;;;;;;;17.72;59.90;100787.38;5066827;28;20028;-85
2021/08/26 08:08:31;;;;;;;1.55;0.40;;;;;;;17.87;60.63;100789.84;5062469;28;20029;-85
2021/08/26 08:10:57;;;;;;;1.33;0.40;;;;;;;18.05;58.05;100778.16;5060727;28;20027;-86
2021/08/26 08:13:22;;;;;;;0.60;0.55;;;;;;;18.43;57.74;100786.97;5069150;28;20056;-84
2021/08/26 08:15:52;;;;;;;1.38;0.40;;;;;;;18.35;57.86;100778.75;5069198;28;20229;-85
2021/08/26 08:18:17;;;;;;;1.33;0.40;;;;;;;18.38;58.68;100780.84;5061090;28;20093;-86
2021/08/26 08:20:43;;;;;;;0.65;0.35;;;;;;;18.30;58.54;100782.34;5065208;28;20589;-85
2021/08/26 08:23:08;;;;;;;1.58;0.30;;;;;;;18.65;56.56;100782.81;5064201;28;20083;-86
2021/08/26 08:25:34;;;;;;;2.20;0.30;;;;;;;18.97;55.14;100790.84;5063344;28;20090;-86
2021/08/26 08:28:00;;;;;;;0.10;0.10;;;;;;;19.00;52.33;100782.09;5063480;28;20071;-86
2021/08/26 08:30:26;;;;;;;1.83;0.30;;;;;;;19.13;54.27;100787.81;5065358;28;20052;-86
2021/08/26 08:32:58;;;;;;;0.60;0.35;;;;;;;18.59;53.56;100784.78;5058087;28;20032;-87
2021/08/26 08:35:26;;;;;;;1.17;0.20;;;;;;;18.80;54.93;100798.81;5066682;28;20439;-86
2021/08/26 08:37:51;;;;;;;2.38;0.30;;;;;;;18.83;55.93;100798.19;5062028;28;20025;-85
2021/08/26 08:40:17;;;;;;;0.90;0.25;;;;;;;18.46;54.91;100801.84;5066673;28;20035;-88
2021/08/26 08:42:44;;;;;;;1.58;0.30;;;;;;;18.22;54.36;100803.94;5062221;28;20043;-87
2021/08/26 08:45:15;;;;;;;1.85;0.20;;;;;;;18.31;54.86;100800.25;5062590;28;20020;-87
2021/08/26 08:47:47;;;;;;;1.92;0.30;;;;;;;18.48;52.50;100801.56;5060651;28;20693;-89
2021/08/26 08:50:17;;;;;;;0.45;0.30;;;;;;;19.19;51.20;100800.97;5064654;28;20071;-87
2021/08/26 08:52:42;;;;;;;1.10;0.30;;;;;;;20.08;50.61;100792.16;5055440;28;20025;-88
2021/08/26 08:55:10;;;;;;;1.98;0.30;;;;;;;20.29;49.50;100795.19;5065216;28;20036;-87
2021/08/26 08:57:40;;;;;;;1.00;0.30;;;;;;;20.07;48.09;100789.75;5067154;28;20111;-86
2021/08/26 09:00:12;;;;;;;0.20;0.17;;;;;;;20.12;49.83;100795.06;5070730;28;20513;-86
2021/08/26 09:02:37;;;;;;;0.22;0.20;;;;;;;19.99;48.84;100791.31;5065762;28;20021;-86
2021/08/26 09:05:04;;;;;;;1.42;0.28;;;;;;;20.04;48.47;100793.88;5070527;28;20078;-86
2021/08/26 09:07:31;;;;;;;1.67;0.30;;;;;;;19.71;48.86;100787.88;5070349;28;20608;-86
2021/08/26 09:09:57;;;;;;;0.95;0.10;;;;;;;19.69;49.46;100797.47;5072388;28;20020;-86
2021/08/26 09:12:44;;;;;;;0.43;0.20;;;;;;;19.13;50.82;100801.41;5055596;28;20028;-85
2021/08/26 09:15:14;;;;;;;0.65;0.13;;;;;;;19.39;50.90;100791.59;5057076;28;20028;-85
2021/08/26 09:17:41;;;;;;;0.32;0.22;;;;;;;18.79;51.62;100799.91;5065167;28;20075;-86
2021/08/26 09:20:09;;;;;;;0.80;0.20;;;;;;;18.60;52.72;100801.88;5067681;28;20053;-86
2021/08/26 09:22:36;;;;;;;0.25;0.20;;;;;;;18.83;51.60;100800.09;5073308;28;20059;-86
2021/08/26 09:25:03;;;;;;;0.30;0.20;;;;;;;19.39;50.96;100791.59;5071444;28;20020;-86
2021/08/26 09:27:32;;;;;;;0.52;0.20;;;;;;;19.86;50.18;100794.88;5063262;28;20028;-86
2021/08/26 09:29:59;;;;;;;0.43;0.30;;;;;;;19.01;49.22;100797.28;5068393;28;20080;-86
2021/08/26 09:32:51;;;;;;;1.80;0.30;;;;;;;19.20;50.77;100785.47;5069671;28;20023;-87
2021/08/26 09:35:22;;;;;;;0.20;0.20;;;;;;;19.47;50.32;100801.75;5066463;28;20036;-86
2021/08/26 09:37:54;;;;;;;0.80;0.20;;;;;;;19.27;49.69;100799.47;5061684;28;20495;-87
2021/08/26 09:40:25;;;;;;;0.43;0.25;;;;;;;18.68;51.84;100804.75;5062048;28;20504;-86
2021/08/26 09:42:58;;;;;;;0.20;0.20;;;;;;;18.24;52.53;100799.81;5059223;28;20158;-87
2021/08/26 09:45:30;;;;;;;0.77;0.22;;;;;;;18.56;51.34;100798.16;5057638;28;20440;-87
2021/08/26 09:47:59;;;;;;;1.10;0.35;;;;;;;17.93;50.67;100798.69;5062673;28;20535;-86
2021/08/26 09:50:37;;;;;;;0.28;0.20;;;;;;;18.26;49.87;100803.03;5064204;28;20035;-87
2021/08/26 09:53:03;;;;;;;0.90;0.10;;;;;;;18.71;48.36;100800.63;5059499;28;20024;-87
2021/08/26 09:55:48;;;;;;;0.10;0.10;;;;;;;19.06;46.51;100792.88;5058399;28;20093;-86
2021/08/26 09:58:15;;;;;;;0.10;0.10;;;;;;;19.63;45.64;100796.00;5052856;28;20025;-86
2021/08/26 10:00:41;;;;;;;0.20;0.10;;;;;;;19.85;44.37;100780.50;5056327;28;20025;-86
2021/08/26 10:03:12;;;;;;;0.30;0.20;;;;;;;19.83;43.48;100785.44;5059730;28;20032;-85
2021/08/26 10:05:39;;;;;;;1.23;0.20;;;;;;;20.23;44.33;100789.03;5054387;28;20028;-85
2021/08/26 10:08:06;;;;;;;0.43;0.10;;;;;;;20.40;43.06;100782.09;5062211;28;20020;-85
2021/08/26 10:10:33;;;;;;;0.47;0.20;;;;;;;19.59;43.73;100783.03;5052145;28;20632;-87
2021/08/26 10:13:02;;;;;;;0.10;0.10;;;;;;;19.61;45.36;100785.44;5058303;28;20040;-87
2021/08/26 10:15:28;;;;;;;0.85;0.10;;;;;;;19.81;46.61;100786.84;5061283;28;20021;-86
2021/08/26 10:17:54;;;;;;;0.38;0.10;;;;;;;19.96;46.38;100777.53;5055342;28;20351;-86
2021/08/26 10:20:23;;;;;;;1.75;0.20;;;;;;;19.44;47.70;100783.34;5061982;28;20198;-86
2021/08/26 10:22:51;;;;;;;0.38;0.20;;;;;;;19.70;47.85;100777.31;5051299;28;20036;-87
2021/08/26 10:25:17;;;;;;;0.55;0.20;;;;;;;19.72;47.23;100780.53;5062358;28;20029;-86
2021/08/26 10:27:47;;;;;;;2.05;0.30;;;;;;;20.37;46.30;100766.41;5060122;28;20039;-87
2021/08/26 10:30:33;;;;;;;0.63;0.30;;;;;;;21.12;44.62;100766.19;5062324;28;20020;-87
2021/08/26 10:33:14;;;;;;;0.30;0.10;;;;;;;21.67;44.56;100773.78;5067711;28;20721;-87
2021/08/26 10:35:49;;;;;;;0.28;0.10;;;;;;;21.72;42.58;100780.97;5063516;28;20028;-86
2021/08/26 10:38:18;;;;;;;;;;;;;;;21.44;43.01;100771.53;5067545;28;20012;-87
2021/08/26 10:40:44;;;;;;;0.10;0.10;;;;;;;21.03;42.17;100770.81;5064498;28;19971;-86
2021/08/26 10:43:33;;;;;;;1.60;0.10;;;;;;;20.04;43.48;100776.78;5059044;28;20605;-86
2021/08/26 10:45:59;;;;;;;0.60;0.20;;;;;;;20.28;44.30;100766.34;5056098;28;20540;-86
2021/08/26 10:48:25;;;;;;;1.02;0.20;;;;;;;19.81;45.30;100776.00;5064747;28;20089;-87
2021/08/26 10:51:16;;;;;;;0.10;0.10;;;;;;;20.14;44.54;100781.97;5065328;28;20074;-85
2021/08/26 10:53:50;;;;;;;0.30;0.30;;;;;;;20.63;44.40;100772.78;5068571;28;20027;-86
2021/08/26 10:56:19;;;;;;;0.10;0.10;;;;;;;21.05;43.83;100770.50;5069966;28;20077;-85
2021/08/26 10:58:46;;;;;;;0.65;0.30;;;;;;;20.69;42.88;100762.56;5062502;28;20142;-85
2021/08/26 11:01:31;;;;;;;0.65;0.22;;;;;;;21.25;43.46;100774.56;5059275;28;20021;-86
2021/08/26 11:04:02;;;;;;;0.10;0.10;;;;;;;21.18;42.87;100777.72;5064346;28;20028;-88
2021/08/26 11:06:29;;;;;;;1.52;0.20;;;;;;;21.03;43.62;100778.19;5063048;28;20064;-85
2021/08/26 11:08:57;;;;;;;1.70;0.40;;;;;;;21.13;44.20;100772.44;5063951;28;20051;-86
2021/08/26 11:11:29;;;;;;;0.40;0.10;;;;;;;21.06;44.31;100778.34;5064418;28;20029;-86
2021/08/26 11:13:54;;;;;;;0.10;0.10;;;;;;;20.55;44.71;100780.91;5062155;28;20029;-88
2021/08/26 11:16:23;;;;;;;1.02;0.10;;;;;;;19.85;45.07;100780.50;5063563;28;20028;-85
2021/08/26 11:18:53;;;;;;;0.13;0.13;;;;;;;19.65;46.61;100782.91;5063383;28;20551;-89
2021/08/26 11:21:46;;;;;;;0.10;0.10;;;;;;;19.02;48.32;100782.59;5076086;28;20440;-86
2021/08/26 11:24:20;;;;;;;0.38;0.10;;;;;;;18.78;49.32;100795.59;5065475;28;20025;-86
2021/08/26 11:26:56;;;;;;;2.03;0.20;;;;;;;18.44;49.57;100785.06;5065077;28;20626;-87
2021/08/26 11:29:24;;;;;;;0.40;0.20;;;;;;;18.50;50.28;100791.22;5058634;28;20089;-86